sensor_id;sensor_type;location;lat;lon;timestamp;temperature;humidity
18779;DHT22;9518;51.720;14.384;2024-03-22T00:01:48;7.60;99.90
18779;DHT22;9518;51.720;14.384;2024-03-22T00:04:16;7.60;99.90
18779;DHT22;9518;51.720;14.384;2024-03-22T00:06:47;7.60;99.90
18779;DHT22;9518;51.720;14.384;2024-03-22T00:09:15;7.60;99.90
18779;DHT22;9518;51.720;14.384;2024-03-22T00:11:45;7.60;99.90
18779;DHT22;9518;51.720;14.384;2024-03-22T00:14:12;7.60;99.90
18779;DHT22;9518;51.720;14.384;2024-03-22T00:16:39;7.60;99.90
18779;DHT22;9518;51.720;14.384;2024-03-22T00:19:05;7.60;99.90
18779;DHT22;9518;51.720;14.384;2024-03-22T00:21:36;7.50;99.90
18779;DHT22;9518;51.720;14.384;2024-03-22T00:24:04;7.50;99.90
18779;DHT22;9518;51.720;14.384;2024-03-22T00:26:40;7.50;99.90
18779;DHT22;9518;51.720;14.384;2024-03-22T00:29:06;7.50;99.90
18779;DHT22;9518;51.720;14.384;2024-03-22T00:31:36;7.40;99.90
18779;DHT22;9518;51.720;14.384;2024-03-22T00:34:03;7.30;99.90
18779;DHT22;9518;51.720;14.384;2024-03-22T00:36:34;7.20;99.90
18779;DHT22;9518;51.720;14.384;2024-03-22T00:39:00;7.10;99.90
18779;DHT22;9518;51.720;14.384;2024-03-22T00:41:29;7.10;99.90
18779;DHT22;9518;51.720;14.384;2024-03-22T00:44:00;7.00;99.90
18779;DHT22;9518;51.720;14.384;2024-03-22T00:46:27;6.90;99.90
18779;DHT22;9518;51.720;14.384;2024-03-22T00:49:01;6.90;99.90
18779;DHT22;9518;51.720;14.384;2024-03-22T00:51:29;6.90;99.90
18779;DHT22;9518;51.720;14.384;2024-03-22T00:53:56;7.00;99.90
18779;DHT22;9518;51.720;14.384;2024-03-22T00:56:23;6.90;99.90
18779;DHT22;9518;51.720;14.384;2024-03-22T00:58:55;6.80;99.90
18779;DHT22;9518;51.720;14.384;2024-03-22T01:01:29;6.80;99.90
18779;DHT22;9518;51.720;14.384;2024-03-22T01:03:56;6.80;99.90
18779;DHT22;9518;51.720;14.384;2024-03-22T01:06:23;6.80;99.90
18779;DHT22;9518;51.720;14.384;2024-03-22T01:08:54;6.70;99.90
18779;DHT22;9518;51.720;14.384;2024-03-22T01:11:23;6.60;99.90
18779;DHT22;9518;51.720;14.384;2024-03-22T01:13:51;6.50;99.90
18779;DHT22;9518;51.720;14.384;2024-03-22T01:16:20;6.50;99.90
18779;DHT22;9518;51.720;14.384;2024-03-22T01:18:48;6.70;99.90
18779;DHT22;9518;51.720;14.384;2024-03-22T01:21:18;6.70;99.90
18779;DHT22;9518;51.720;14.384;2024-03-22T01:23:44;6.80;99.90
18779;DHT22;9518;51.720;14.384;2024-03-22T01:26:12;6.80;99.90
18779;DHT22;9518;51.720;14.384;2024-03-22T01:28:38;6.80;99.90
18779;DHT22;9518;51.720;14.384;2024-03-22T01:31:19;6.80;99.90
18779;DHT22;9518;51.720;14.384;2024-03-22T01:33:50;6.80;99.90
18779;DHT22;9518;51.720;14.384;2024-03-22T01:36:24;6.90;99.90
18779;DHT22;9518;51.720;14.384;2024-03-22T01:38:56;6.90;99.90
18779;DHT22;9518;51.720;14.384;2024-03-22T01:41:37;6.90;99.90
18779;DHT22;9518;51.720;14.384;2024-03-22T01:44:05;7.00;99.90
18779;DHT22;9518;51.720;14.384;2024-03-22T01:49:01;7.00;99.90
18779;DHT22;9518;51.720;14.384;2024-03-22T01:51:27;7.00;99.90
18779;DHT22;9518;51.720;14.384;2024-03-22T01:53:56;7.00;99.90
18779;DHT22;9518;51.720;14.384;2024-03-22T01:56:25;7.10;99.90
18779;DHT22;9518;51.720;14.384;2024-03-22T01:58:54;7.10;99.90
18779;DHT22;9518;51.720;14.384;2024-03-22T02:01:22;7.10;99.90
18779;DHT22;9518;51.720;14.384;2024-03-22T02:03:54;7.10;99.90
18779;DHT22;9518;51.720;14.384;2024-03-22T02:09:18;7.00;99.90
18779;DHT22;9518;51.720;14.384;2024-03-22T02:11:49;7.00;99.90
18779;DHT22;9518;51.720;14.384;2024-03-22T02:14:16;6.90;99.90
18779;DHT22;9518;51.720;14.384;2024-03-22T02:16:45;7.00;99.90
18779;DHT22;9518;51.720;14.384;2024-03-22T02:19:11;7.00;99.90
18779;DHT22;9518;51.720;14.384;2024-03-22T02:21:41;7.00;99.90
18779;DHT22;9518;51.720;14.384;2024-03-22T02:24:10;7.00;99.90
18779;DHT22;9518;51.720;14.384;2024-03-22T02:26:38;7.00;99.90
18779;DHT22;9518;51.720;14.384;2024-03-22T02:29:06;7.00;99.90
18779;DHT22;9518;51.720;14.384;2024-03-22T02:31:34;6.90;99.90
18779;DHT22;9518;51.720;14.384;2024-03-22T02:34:06;7.00;99.90
18779;DHT22;9518;51.720;14.384;2024-03-22T02:36:36;6.90;99.90
18779;DHT22;9518;51.720;14.384;2024-03-22T02:39:02;7.00;99.90
18779;DHT22;9518;51.720;14.384;2024-03-22T02:41:31;7.00;99.90
18779;DHT22;9518;51.720;14.384;2024-03-22T02:43:58;7.00;99.90
18779;DHT22;9518;51.720;14.384;2024-03-22T02:46:25;7.00;99.90
18779;DHT22;9518;51.720;14.384;2024-03-22T02:48:52;7.00;99.90
18779;DHT22;9518;51.720;14.384;2024-03-22T02:51:20;7.00;99.90
18779;DHT22;9518;51.720;14.384;2024-03-22T02:53:47;7.00;99.90
18779;DHT22;9518;51.720;14.384;2024-03-22T02:56:15;7.00;99.90
18779;DHT22;9518;51.720;14.384;2024-03-22T02:58:42;7.10;99.90
18779;DHT22;9518;51.720;14.384;2024-03-22T03:01:11;7.10;99.90
18779;DHT22;9518;51.720;14.384;2024-03-22T03:03:38;7.10;99.90
18779;DHT22;9518;51.720;14.384;2024-03-22T03:06:05;7.20;99.90
18779;DHT22;9518;51.720;14.384;2024-03-22T03:08:31;7.20;99.90
18779;DHT22;9518;51.720;14.384;2024-03-22T03:10:58;7.20;99.90
18779;DHT22;9518;51.720;14.384;2024-03-22T03:13:25;7.20;99.90
18779;DHT22;9518;51.720;14.384;2024-03-22T03:15:56;7.20;99.90
18779;DHT22;9518;51.720;14.384;2024-03-22T03:18:22;7.20;99.90
18779;DHT22;9518;51.720;14.384;2024-03-22T03:20:49;7.20;99.90
18779;DHT22;9518;51.720;14.384;2024-03-22T03:23:15;7.30;99.90
18779;DHT22;9518;51.720;14.384;2024-03-22T03:25:42;7.30;99.90
18779;DHT22;9518;51.720;14.384;2024-03-22T03:28:08;7.20;99.90
18779;DHT22;9518;51.720;14.384;2024-03-22T03:30:35;7.20;99.90
18779;DHT22;9518;51.720;14.384;2024-03-22T03:33:03;7.10;99.90
18779;DHT22;9518;51.720;14.384;2024-03-22T03:35:32;7.10;99.90
18779;DHT22;9518;51.720;14.384;2024-03-22T03:37:59;7.20;99.90
18779;DHT22;9518;51.720;14.384;2024-03-22T03:40:26;7.20;99.90
18779;DHT22;9518;51.720;14.384;2024-03-22T03:42:53;7.10;99.90
18779;DHT22;9518;51.720;14.384;2024-03-22T03:45:20;7.10;99.90
18779;DHT22;9518;51.720;14.384;2024-03-22T03:47:46;7.10;99.90
18779;DHT22;9518;51.720;14.384;2024-03-22T03:50:15;7.20;99.90
18779;DHT22;9518;51.720;14.384;2024-03-22T03:52:41;7.20;99.90
18779;DHT22;9518;51.720;14.384;2024-03-22T03:55:09;7.20;99.90
18779;DHT22;9518;51.720;14.384;2024-03-22T03:57:35;7.10;99.90
18779;DHT22;9518;51.720;14.384;2024-03-22T04:00:02;7.10;99.90
18779;DHT22;9518;51.720;14.384;2024-03-22T04:02:29;7.10;99.90
18779;DHT22;9518;51.720;14.384;2024-03-22T04:04:58;7.10;99.90
18779;DHT22;9518;51.720;14.384;2024-03-22T04:07:26;7.00;99.90
18779;DHT22;9518;51.720;14.384;2024-03-22T04:10:02;7.00;99.90
18779;DHT22;9518;51.720;14.384;2024-03-22T04:12:28;7.00;99.90
18779;DHT22;9518;51.720;14.384;2024-03-22T04:14:56;7.00;99.90
18779;DHT22;9518;51.720;14.384;2024-03-22T04:17:23;7.00;99.90
18779;DHT22;9518;51.720;14.384;2024-03-22T04:19:50;7.00;99.90
18779;DHT22;9518;51.720;14.384;2024-03-22T04:22:17;7.00;99.90
18779;DHT22;9518;51.720;14.384;2024-03-22T04:24:46;7.00;99.90
18779;DHT22;9518;51.720;14.384;2024-03-22T04:27:12;7.00;99.90
18779;DHT22;9518;51.720;14.384;2024-03-22T04:29:39;7.10;99.90
18779;DHT22;9518;51.720;14.384;2024-03-22T04:32:06;7.10;99.90
18779;DHT22;9518;51.720;14.384;2024-03-22T04:34:33;7.10;99.90
18779;DHT22;9518;51.720;14.384;2024-03-22T04:37:01;7.10;99.90
18779;DHT22;9518;51.720;14.384;2024-03-22T04:39:28;7.10;99.90
18779;DHT22;9518;51.720;14.384;2024-03-22T04:41:56;7.10;99.90
18779;DHT22;9518;51.720;14.384;2024-03-22T04:44:23;7.00;99.90
18779;DHT22;9518;51.720;14.384;2024-03-22T04:46:50;7.00;99.90
18779;DHT22;9518;51.720;14.384;2024-03-22T04:49:18;7.00;99.90
18779;DHT22;9518;51.720;14.384;2024-03-22T04:51:44;7.00;99.90
18779;DHT22;9518;51.720;14.384;2024-03-22T04:54:11;7.00;99.90
18779;DHT22;9518;51.720;14.384;2024-03-22T04:56:39;7.00;99.90
18779;DHT22;9518;51.720;14.384;2024-03-22T04:59:08;7.00;99.90
18779;DHT22;9518;51.720;14.384;2024-03-22T05:01:34;7.00;99.90
18779;DHT22;9518;51.720;14.384;2024-03-22T05:04:02;7.00;99.90
18779;DHT22;9518;51.720;14.384;2024-03-22T05:06:28;7.00;99.90
18779;DHT22;9518;51.720;14.384;2024-03-22T05:08:55;7.10;99.90
18779;DHT22;9518;51.720;14.384;2024-03-22T05:11:22;7.10;99.90
18779;DHT22;9518;51.720;14.384;2024-03-22T05:13:51;7.10;99.90
18779;DHT22;9518;51.720;14.384;2024-03-22T05:16:18;7.10;99.90
18779;DHT22;9518;51.720;14.384;2024-03-22T05:18:45;7.10;99.90
18779;DHT22;9518;51.720;14.384;2024-03-22T05:21:11;7.10;99.90
18779;DHT22;9518;51.720;14.384;2024-03-22T05:23:38;7.10;99.90
18779;DHT22;9518;51.720;14.384;2024-03-22T05:26:04;7.10;99.90
18779;DHT22;9518;51.720;14.384;2024-03-22T05:28:31;7.10;99.90
18779;DHT22;9518;51.720;14.384;2024-03-22T05:30:58;7.10;99.90
18779;DHT22;9518;51.720;14.384;2024-03-22T05:33:27;7.10;99.90
18779;DHT22;9518;51.720;14.384;2024-03-22T05:35:53;7.20;99.90
18779;DHT22;9518;51.720;14.384;2024-03-22T05:38:20;7.20;99.90
18779;DHT22;9518;51.720;14.384;2024-03-22T05:40:46;7.30;99.90
18779;DHT22;9518;51.720;14.384;2024-03-22T05:43:15;7.30;99.90
18779;DHT22;9518;51.720;14.384;2024-03-22T05:45:42;7.30;99.90
18779;DHT22;9518;51.720;14.384;2024-03-22T05:48:09;7.30;99.90
18779;DHT22;9518;51.720;14.384;2024-03-22T05:50:37;7.40;99.90
18779;DHT22;9518;51.720;14.384;2024-03-22T05:53:04;7.40;99.90
18779;DHT22;9518;51.720;14.384;2024-03-22T05:55:31;7.40;99.90
18779;DHT22;9518;51.720;14.384;2024-03-22T05:57:58;7.50;99.90
18779;DHT22;9518;51.720;14.384;2024-03-22T06:00:24;7.60;99.90
18779;DHT22;9518;51.720;14.384;2024-03-22T06:02:51;7.70;99.90
18779;DHT22;9518;51.720;14.384;2024-03-22T06:05:19;7.80;99.90
18779;DHT22;9518;51.720;14.384;2024-03-22T06:07:48;7.90;99.90
18779;DHT22;9518;51.720;14.384;2024-03-22T06:10:15;8.00;99.90
18779;DHT22;9518;51.720;14.384;2024-03-22T06:12:43;8.10;99.90
18779;DHT22;9518;51.720;14.384;2024-03-22T06:15:12;8.10;99.90
18779;DHT22;9518;51.720;14.384;2024-03-22T06:17:40;8.10;99.90
18779;DHT22;9518;51.720;14.384;2024-03-22T06:20:09;8.20;99.90
18779;DHT22;9518;51.720;14.384;2024-03-22T06:22:37;8.30;99.90
18779;DHT22;9518;51.720;14.384;2024-03-22T06:25:06;8.40;99.90
18779;DHT22;9518;51.720;14.384;2024-03-22T06:27:33;8.50;99.90
18779;DHT22;9518;51.720;14.384;2024-03-22T06:29:59;8.60;99.90
18779;DHT22;9518;51.720;14.384;2024-03-22T06:32:26;8.80;99.90
18779;DHT22;9518;51.720;14.384;2024-03-22T06:34:53;8.90;99.90
18779;DHT22;9518;51.720;14.384;2024-03-22T06:37:20;8.90;99.90
18779;DHT22;9518;51.720;14.384;2024-03-22T06:39:46;9.00;99.90
18779;DHT22;9518;51.720;14.384;2024-03-22T06:42:16;9.10;99.90
18779;DHT22;9518;51.720;14.384;2024-03-22T06:44:44;9.00;99.90
18779;DHT22;9518;51.720;14.384;2024-03-22T06:47:11;9.00;99.90
18779;DHT22;9518;51.720;14.384;2024-03-22T06:49:38;9.10;99.90
18779;DHT22;9518;51.720;14.384;2024-03-22T06:52:07;9.00;99.90
18779;DHT22;9518;51.720;14.384;2024-03-22T06:54:33;9.10;99.90
18779;DHT22;9518;51.720;14.384;2024-03-22T06:57:00;9.10;99.90
18779;DHT22;9518;51.720;14.384;2024-03-22T06:59:28;9.30;99.90
18779;DHT22;9518;51.720;14.384;2024-03-22T07:01:55;9.30;99.90
18779;DHT22;9518;51.720;14.384;2024-03-22T07:04:22;9.30;99.90
18779;DHT22;9518;51.720;14.384;2024-03-22T07:06:51;9.40;99.90
18779;DHT22;9518;51.720;14.384;2024-03-22T07:09:17;9.50;99.90
18779;DHT22;9518;51.720;14.384;2024-03-22T07:11:44;9.50;99.90
18779;DHT22;9518;51.720;14.384;2024-03-22T07:14:10;9.60;99.90
18779;DHT22;9518;51.720;14.384;2024-03-22T07:16:40;9.60;99.90
18779;DHT22;9518;51.720;14.384;2024-03-22T07:19:06;9.60;99.90
18779;DHT22;9518;51.720;14.384;2024-03-22T07:21:33;9.70;99.90
18779;DHT22;9518;51.720;14.384;2024-03-22T07:24:00;9.70;99.90
18779;DHT22;9518;51.720;14.384;2024-03-22T07:26:27;9.70;99.90
18779;DHT22;9518;51.720;14.384;2024-03-22T07:28:53;9.70;99.90
18779;DHT22;9518;51.720;14.384;2024-03-22T07:31:20;9.80;99.90
18779;DHT22;9518;51.720;14.384;2024-03-22T07:33:48;9.90;99.90
18779;DHT22;9518;51.720;14.384;2024-03-22T07:36:16;10.20;99.90
18779;DHT22;9518;51.720;14.384;2024-03-22T07:38:42;10.20;99.90
18779;DHT22;9518;51.720;14.384;2024-03-22T07:41:09;10.30;99.90
18779;DHT22;9518;51.720;14.384;2024-03-22T07:43:36;10.30;99.90
18779;DHT22;9518;51.720;14.384;2024-03-22T07:46:03;10.50;99.90
18779;DHT22;9518;51.720;14.384;2024-03-22T07:48:30;10.60;99.90
18779;DHT22;9518;51.720;14.384;2024-03-22T07:51:01;10.70;99.90
18779;DHT22;9518;51.720;14.384;2024-03-22T07:53:27;10.80;99.90
18779;DHT22;9518;51.720;14.384;2024-03-22T07:55:55;10.80;99.90
18779;DHT22;9518;51.720;14.384;2024-03-22T07:58:21;10.90;99.90
18779;DHT22;9518;51.720;14.384;2024-03-22T08:00:49;11.00;99.90
18779;DHT22;9518;51.720;14.384;2024-03-22T08:03:16;11.00;99.90
18779;DHT22;9518;51.720;14.384;2024-03-22T08:05:43;11.20;99.90
18779;DHT22;9518;51.720;14.384;2024-03-22T08:08:11;11.30;99.90
18779;DHT22;9518;51.720;14.384;2024-03-22T08:10:40;11.40;99.90
18779;DHT22;9518;51.720;14.384;2024-03-22T08:13:06;11.70;99.90
18779;DHT22;9518;51.720;14.384;2024-03-22T08:15:33;11.80;99.90
18779;DHT22;9518;51.720;14.384;2024-03-22T08:17:59;11.70;99.90
18779;DHT22;9518;51.720;14.384;2024-03-22T08:20:26;11.70;99.90
18779;DHT22;9518;51.720;14.384;2024-03-22T08:22:53;11.70;99.90
18779;DHT22;9518;51.720;14.384;2024-03-22T08:25:22;11.90;99.90
18779;DHT22;9518;51.720;14.384;2024-03-22T08:27:50;11.90;99.90
18779;DHT22;9518;51.720;14.384;2024-03-22T08:30:20;12.10;99.90
18779;DHT22;9518;51.720;14.384;2024-03-22T08:32:46;12.00;99.90
18779;DHT22;9518;51.720;14.384;2024-03-22T08:35:14;11.80;99.90
18779;DHT22;9518;51.720;14.384;2024-03-22T08:38:04;11.80;99.90
18779;DHT22;9518;51.720;14.384;2024-03-22T08:40:42;11.70;99.90
18779;DHT22;9518;51.720;14.384;2024-03-22T08:43:11;12.00;99.90
18779;DHT22;9518;51.720;14.384;2024-03-22T08:46:05;12.00;99.90
18779;DHT22;9518;51.720;14.384;2024-03-22T08:48:34;11.90;99.90
18779;DHT22;9518;51.720;14.384;2024-03-22T08:51:03;12.10;99.90
18779;DHT22;9518;51.720;14.384;2024-03-22T08:53:31;12.30;99.90
18779;DHT22;9518;51.720;14.384;2024-03-22T08:56:08;12.40;99.90
18779;DHT22;9518;51.720;14.384;2024-03-22T08:58:36;12.20;99.90
18779;DHT22;9518;51.720;14.384;2024-03-22T09:01:43;12.30;99.90
18779;DHT22;9518;51.720;14.384;2024-03-22T09:04:15;12.40;99.10
18779;DHT22;9518;51.720;14.384;2024-03-22T09:06:43;12.40;99.20
18779;DHT22;9518;51.720;14.384;2024-03-22T09:09:19;12.50;99.90
18779;DHT22;9518;51.720;14.384;2024-03-22T09:11:52;13.00;98.30
18779;DHT22;9518;51.720;14.384;2024-03-22T09:14:23;13.20;97.20
18779;DHT22;9518;51.720;14.384;2024-03-22T09:16:52;13.20;95.60
18779;DHT22;9518;51.720;14.384;2024-03-22T09:19:22;13.10;96.30
18779;DHT22;9518;51.720;14.384;2024-03-22T09:21:49;13.20;95.90
18779;DHT22;9518;51.720;14.384;2024-03-22T09:24:16;13.50;96.60
18779;DHT22;9518;51.720;14.384;2024-03-22T09:26:48;13.80;94.40
18779;DHT22;9518;51.720;14.384;2024-03-22T09:29:28;13.70;94.00
18779;DHT22;9518;51.720;14.384;2024-03-22T09:31:56;13.40;95.80
18779;DHT22;9518;51.720;14.384;2024-03-22T09:34:25;13.40;95.90
18779;DHT22;9518;51.720;14.384;2024-03-22T09:36:51;13.60;93.40
18779;DHT22;9518;51.720;14.384;2024-03-22T09:39:20;13.70;92.80
18779;DHT22;9518;51.720;14.384;2024-03-22T09:41:50;13.80;93.70
18779;DHT22;9518;51.720;14.384;2024-03-22T09:44:22;13.80;92.20
18779;DHT22;9518;51.720;14.384;2024-03-22T09:46:51;13.80;92.20
18779;DHT22;9518;51.720;14.384;2024-03-22T09:49:27;13.60;92.10
18779;DHT22;9518;51.720;14.384;2024-03-22T09:51:55;13.70;92.20
18779;DHT22;9518;51.720;14.384;2024-03-22T09:54:24;13.70;92.40
18779;DHT22;9518;51.720;14.384;2024-03-22T09:56:55;13.40;92.70
18779;DHT22;9518;51.720;14.384;2024-03-22T09:59:28;13.50;91.90
18779;DHT22;9518;51.720;14.384;2024-03-22T10:01:58;13.70;93.00
18779;DHT22;9518;51.720;14.384;2024-03-22T10:04:29;14.10;92.70
18779;DHT22;9518;51.720;14.384;2024-03-22T10:06:57;14.40;92.10
18779;DHT22;9518;51.720;14.384;2024-03-22T10:09:35;14.40;91.00
18779;DHT22;9518;51.720;14.384;2024-03-22T10:12:03;14.40;89.90
18779;DHT22;9518;51.720;14.384;2024-03-22T10:14:36;14.10;90.80
18779;DHT22;9518;51.720;14.384;2024-03-22T10:17:04;14.00;90.60
18779;DHT22;9518;51.720;14.384;2024-03-22T10:19:35;14.20;91.60
18779;DHT22;9518;51.720;14.384;2024-03-22T10:22:04;14.40;90.30
18779;DHT22;9518;51.720;14.384;2024-03-22T10:24:39;14.50;91.30
18779;DHT22;9518;51.720;14.384;2024-03-22T10:27:08;14.40;90.70
18779;DHT22;9518;51.720;14.384;2024-03-22T10:29:43;14.30;90.70
18779;DHT22;9518;51.720;14.384;2024-03-22T10:32:10;14.10;91.60
18779;DHT22;9518;51.720;14.384;2024-03-22T10:34:40;14.20;91.10
18779;DHT22;9518;51.720;14.384;2024-03-22T10:37:10;14.30;90.50
18779;DHT22;9518;51.720;14.384;2024-03-22T10:39:47;14.60;91.10
18779;DHT22;9518;51.720;14.384;2024-03-22T10:42:22;14.60;90.90
18779;DHT22;9518;51.720;14.384;2024-03-22T10:44:54;14.70;91.00
18779;DHT22;9518;51.720;14.384;2024-03-22T10:47:24;14.50;90.10
18779;DHT22;9518;51.720;14.384;2024-03-22T10:50:02;14.20;91.70
18779;DHT22;9518;51.720;14.384;2024-03-22T10:52:32;14.20;92.10
18779;DHT22;9518;51.720;14.384;2024-03-22T10:55:04;14.00;93.20
18779;DHT22;9518;51.720;14.384;2024-03-22T10:57:34;14.00;92.20
18779;DHT22;9518;51.720;14.384;2024-03-22T11:00:11;13.90;92.60
18779;DHT22;9518;51.720;14.384;2024-03-22T11:02:38;14.00;93.90
18779;DHT22;9518;51.720;14.384;2024-03-22T11:05:18;14.10;92.60
18779;DHT22;9518;51.720;14.384;2024-03-22T11:08:00;14.00;92.20
18779;DHT22;9518;51.720;14.384;2024-03-22T11:10:40;14.00;92.70
18779;DHT22;9518;51.720;14.384;2024-03-22T11:13:10;14.20;93.20
18779;DHT22;9518;51.720;14.384;2024-03-22T11:15:41;14.30;92.90
18779;DHT22;9518;51.720;14.384;2024-03-22T11:18:13;14.50;93.70
18779;DHT22;9518;51.720;14.384;2024-03-22T11:20:45;14.80;92.40
18779;DHT22;9518;51.720;14.384;2024-03-22T11:23:14;14.80;92.30
18779;DHT22;9518;51.720;14.384;2024-03-22T11:25:44;15.00;92.10
18779;DHT22;9518;51.720;14.384;2024-03-22T11:28:12;14.90;91.30
18779;DHT22;9518;51.720;14.384;2024-03-22T11:30:58;14.50;91.30
18779;DHT22;9518;51.720;14.384;2024-03-22T11:33:26;14.30;93.30
18779;DHT22;9518;51.720;14.384;2024-03-22T11:36:00;14.40;92.20
18779;DHT22;9518;51.720;14.384;2024-03-22T11:38:27;14.50;92.40
18779;DHT22;9518;51.720;14.384;2024-03-22T11:41:05;14.30;91.80
18779;DHT22;9518;51.720;14.384;2024-03-22T11:43:37;14.30;92.60
18779;DHT22;9518;51.720;14.384;2024-03-22T11:46:20;14.20;92.40
18779;DHT22;9518;51.720;14.384;2024-03-22T11:48:53;14.20;92.70
18779;DHT22;9518;51.720;14.384;2024-03-22T11:51:21;14.20;92.70
18779;DHT22;9518;51.720;14.384;2024-03-22T11:53:55;14.40;93.00
18779;DHT22;9518;51.720;14.384;2024-03-22T11:56:25;14.40;92.20
18779;DHT22;9518;51.720;14.384;2024-03-22T11:58:59;14.50;93.10
18779;DHT22;9518;51.720;14.384;2024-03-22T12:01:37;14.70;92.30
18779;DHT22;9518;51.720;14.384;2024-03-22T12:04:20;15.00;92.50
18779;DHT22;9518;51.720;14.384;2024-03-22T12:07:10;15.20;91.90
18779;DHT22;9518;51.720;14.384;2024-03-22T12:09:45;15.50;91.50
18779;DHT22;9518;51.720;14.384;2024-03-22T12:12:13;15.70;90.70
18779;DHT22;9518;51.720;14.384;2024-03-22T12:14:50;15.40;90.10
18779;DHT22;9518;51.720;14.384;2024-03-22T12:17:41;15.20;91.20
18779;DHT22;9518;51.720;14.384;2024-03-22T12:23:38;15.60;90.90
18779;DHT22;9518;51.720;14.384;2024-03-22T12:26:22;15.40;90.40
18779;DHT22;9518;51.720;14.384;2024-03-22T12:28:50;15.40;90.50
18779;DHT22;9518;51.720;14.384;2024-03-22T12:31:25;15.40;91.20
18779;DHT22;9518;51.720;14.384;2024-03-22T12:34:11;15.70;91.30
18779;DHT22;9518;51.720;14.384;2024-03-22T12:36:39;16.00;87.40
18779;DHT22;9518;51.720;14.384;2024-03-22T12:39:09;16.00;89.70
18779;DHT22;9518;51.720;14.384;2024-03-22T12:41:42;16.00;88.10
18779;DHT22;9518;51.720;14.384;2024-03-22T12:44:14;15.90;89.00
18779;DHT22;9518;51.720;14.384;2024-03-22T12:46:46;15.90;89.20
18779;DHT22;9518;51.720;14.384;2024-03-22T12:49:39;16.00;90.30
18779;DHT22;9518;51.720;14.384;2024-03-22T12:52:26;15.90;88.00
18779;DHT22;9518;51.720;14.384;2024-03-22T12:55:12;15.80;88.70
18779;DHT22;9518;51.720;14.384;2024-03-22T12:57:41;15.60;90.50
18779;DHT22;9518;51.720;14.384;2024-03-22T13:00:18;15.70;89.20
18779;DHT22;9518;51.720;14.384;2024-03-22T13:03:04;15.90;89.60
18779;DHT22;9518;51.720;14.384;2024-03-22T13:08:52;16.30;88.50
18779;DHT22;9518;51.720;14.384;2024-03-22T13:11:18;16.40;87.40
18779;DHT22;9518;51.720;14.384;2024-03-22T13:14:27;16.50;87.40
18779;DHT22;9518;51.720;14.384;2024-03-22T13:17:06;16.70;84.70
18779;DHT22;9518;51.720;14.384;2024-03-22T13:22:26;17.40;81.60
18779;DHT22;9518;51.720;14.384;2024-03-22T13:25:10;16.90;83.20
18779;DHT22;9518;51.720;14.384;2024-03-22T13:27:44;16.70;81.70
18779;DHT22;9518;51.720;14.384;2024-03-22T13:30:26;16.80;82.80
18779;DHT22;9518;51.720;14.384;2024-03-22T13:32:55;16.90;81.40
18779;DHT22;9518;51.720;14.384;2024-03-22T13:35:29;16.70;81.10
18779;DHT22;9518;51.720;14.384;2024-03-22T13:37:56;16.70;81.40
18779;DHT22;9518;51.720;14.384;2024-03-22T13:40:36;16.70;83.20
18779;DHT22;9518;51.720;14.384;2024-03-22T13:43:07;16.80;84.20
18779;DHT22;9518;51.720;14.384;2024-03-22T13:45:39;16.90;85.00
18779;DHT22;9518;51.720;14.384;2024-03-22T13:48:12;17.10;81.80
18779;DHT22;9518;51.720;14.384;2024-03-22T13:50:44;16.80;83.20
18779;DHT22;9518;51.720;14.384;2024-03-22T13:53:18;16.80;81.50
18779;DHT22;9518;51.720;14.384;2024-03-22T13:56:11;16.80;81.90
18779;DHT22;9518;51.720;14.384;2024-03-22T13:58:38;16.90;82.90
18779;DHT22;9518;51.720;14.384;2024-03-22T14:01:11;16.90;83.50
18779;DHT22;9518;51.720;14.384;2024-03-22T14:03:43;17.40;82.10
18779;DHT22;9518;51.720;14.384;2024-03-22T14:06:12;18.00;79.00
18779;DHT22;9518;51.720;14.384;2024-03-22T14:08:45;18.40;76.20
18779;DHT22;9518;51.720;14.384;2024-03-22T14:11:22;18.60;77.10
18779;DHT22;9518;51.720;14.384;2024-03-22T14:13:49;19.20;73.50
18779;DHT22;9518;51.720;14.384;2024-03-22T14:16:18;19.10;71.40
18779;DHT22;9518;51.720;14.384;2024-03-22T14:18:46;18.90;72.70
18779;DHT22;9518;51.720;14.384;2024-03-22T14:21:30;18.60;72.60
18779;DHT22;9518;51.720;14.384;2024-03-22T14:24:01;18.20;72.80
18779;DHT22;9518;51.720;14.384;2024-03-22T14:26:47;17.80;73.00
18779;DHT22;9518;51.720;14.384;2024-03-22T14:29:16;17.60;74.10
18779;DHT22;9518;51.720;14.384;2024-03-22T14:31:47;17.20;74.60
18779;DHT22;9518;51.720;14.384;2024-03-22T14:34:15;16.90;75.50
18779;DHT22;9518;51.720;14.384;2024-03-22T14:36:45;17.10;77.90
18779;DHT22;9518;51.720;14.384;2024-03-22T14:39:15;16.80;76.20
18779;DHT22;9518;51.720;14.384;2024-03-22T14:41:41;16.70;76.10
18779;DHT22;9518;51.720;14.384;2024-03-22T14:44:09;16.70;76.70
18779;DHT22;9518;51.720;14.384;2024-03-22T14:46:35;16.80;76.60
18779;DHT22;9518;51.720;14.384;2024-03-22T14:49:03;16.90;76.80
18779;DHT22;9518;51.720;14.384;2024-03-22T14:51:29;17.10;74.30
18779;DHT22;9518;51.720;14.384;2024-03-22T14:53:56;17.00;74.20
18779;DHT22;9518;51.720;14.384;2024-03-22T14:56:22;16.70;75.30
18779;DHT22;9518;51.720;14.384;2024-03-22T14:58:50;16.40;74.70
18779;DHT22;9518;51.720;14.384;2024-03-22T15:01:17;16.30;75.20
18779;DHT22;9518;51.720;14.384;2024-03-22T15:03:46;16.20;76.20
18779;DHT22;9518;51.720;14.384;2024-03-22T15:06:12;16.10;77.50
18779;DHT22;9518;51.720;14.384;2024-03-22T15:08:39;16.10;76.80
18779;DHT22;9518;51.720;14.384;2024-03-22T15:11:05;16.00;77.90
18779;DHT22;9518;51.720;14.384;2024-03-22T15:13:32;15.90;79.00
18779;DHT22;9518;51.720;14.384;2024-03-22T15:16:00;15.70;78.40
18779;DHT22;9518;51.720;14.384;2024-03-22T15:18:30;15.50;80.20
18779;DHT22;9518;51.720;14.384;2024-03-22T15:20:56;15.30;81.70
18779;DHT22;9518;51.720;14.384;2024-03-22T15:23:23;15.20;81.70
18779;DHT22;9518;51.720;14.384;2024-03-22T15:25:49;15.10;82.80
18779;DHT22;9518;51.720;14.384;2024-03-22T15:28:16;15.00;82.00
18779;DHT22;9518;51.720;14.384;2024-03-22T15:30:42;15.00;83.40
18779;DHT22;9518;51.720;14.384;2024-03-22T15:33:11;14.90;83.80
18779;DHT22;9518;51.720;14.384;2024-03-22T15:35:38;14.80;86.80
18779;DHT22;9518;51.720;14.384;2024-03-22T15:38:07;14.60;87.40
18779;DHT22;9518;51.720;14.384;2024-03-22T15:40:33;14.50;87.60
18779;DHT22;9518;51.720;14.384;2024-03-22T15:43:01;14.50;90.20
18779;DHT22;9518;51.720;14.384;2024-03-22T15:45:27;14.40;91.00
18779;DHT22;9518;51.720;14.384;2024-03-22T15:47:56;14.10;92.70
18779;DHT22;9518;51.720;14.384;2024-03-22T15:50:22;13.70;96.90
18779;DHT22;9518;51.720;14.384;2024-03-22T15:52:50;13.40;98.80
18779;DHT22;9518;51.720;14.384;2024-03-22T15:55:16;13.30;98.50
18779;DHT22;9518;51.720;14.384;2024-03-22T15:57:46;13.30;98.40
18779;DHT22;9518;51.720;14.384;2024-03-22T16:00:13;13.40;98.80
18779;DHT22;9518;51.720;14.384;2024-03-22T16:02:40;13.40;98.50
18779;DHT22;9518;51.720;14.384;2024-03-22T16:05:07;13.50;99.80
18779;DHT22;9518;51.720;14.384;2024-03-22T16:07:34;13.50;99.90
18779;DHT22;9518;51.720;14.384;2024-03-22T16:10:02;13.60;99.00